»·PEaware :: UPS2089 KSAN-KTUS

UPS2089 :: KSAN-KTUS

FLIGHT INFORMATION

Flight Status: Arrived
Operator:
United Parcel Service
More flights by this operator :: More flights under this callsign
Pilot: Will K. (13011)
Aircraft: Unknown
(B748)
More flights by this aircraft type
Origin: KSAN San Diego Intl-Lindbergh
United States
Destination: KTUS Tucson Intl
United States
More flights between these airports :: More routes between these airports
Route: ZZOOO2 IPL J2 GBN DINGO5
File this flight plan on PilotEdge
Remarks:
Altitude:
(Current/Filed)
33,000ft
Speed:
(Current/Filed)
470kts
Departed: 06-Oct-18 07:34 PM
Arrived: 06-Oct-18 08:30 PM
Distance/Time
Traveled:
319nm/0:56
Distance/Time
To Go:
Arrived

Flight Plot

Page will automatically refresh every two minutes.

Flight plan parsing failed; only flown route is shown


Map Options




Map Legend


Flown Route
Filed Route
Departure Airport
Arrival Airport
Navaid (VOR, NDB)
Fix

Horizontal Profiles

Position Reports

Time Latitude Longitude Heading Altitude Ground
Speed
06-Oct-18 19:04 32.738081 -117.187031 324 28ft 0kts
06-Oct-18 19:05 32.738081 -117.187031 324 28ft 0kts
06-Oct-18 19:06 32.738081 -117.187031 324 28ft 0kts
06-Oct-18 19:07 32.738081 -117.187031 324 28ft 0kts
06-Oct-18 19:08 32.738081 -117.187031 324 28ft 0kts
06-Oct-18 19:09 32.738081 -117.187031 324 28ft 0kts
06-Oct-18 19:10 32.738081 -117.187031 324 28ft 0kts
06-Oct-18 19:11 32.738081 -117.187031 324 28ft 0kts
06-Oct-18 19:12 32.738081 -117.187031 324 28ft 0kts
06-Oct-18 19:13 32.738081 -117.187031 324 28ft 0kts
06-Oct-18 19:14 32.738081 -117.187031 324 28ft 0kts
06-Oct-18 19:15 32.738081 -117.187031 324 28ft 0kts
06-Oct-18 19:16 32.738081 -117.187031 324 28ft 0kts
06-Oct-18 19:17 32.738081 -117.187031 324 28ft 0kts
06-Oct-18 19:18 32.737702 -117.186700 322 28ft 2kts
06-Oct-18 19:19 32.737178 -117.186244 324 28ft 2kts
06-Oct-18 19:20 32.736649 -117.185796 324 28ft 2kts
06-Oct-18 19:21 32.736121 -117.185351 324 28ft 2kts
06-Oct-18 19:22 32.735843 -117.185117 323 28ft 0kts
06-Oct-18 19:23 32.735843 -117.185117 323 28ft 0kts
06-Oct-18 19:24 32.735843 -117.185117 323 28ft 0kts
06-Oct-18 19:25 32.735843 -117.185117 323 28ft 0kts
06-Oct-18 19:26 32.736003 -117.185258 322 28ft 10kts
06-Oct-18 19:27 32.736976 -117.186015 148 28ft 0kts
06-Oct-18 19:28 32.736975 -117.186014 148 28ft 0kts
06-Oct-18 19:29 32.734330 -117.183992 172 28ft 10kts
06-Oct-18 19:30 32.732670 -117.181366 106 28ft 15kts
06-Oct-18 19:31 32.731393 -117.176144 118 28ft 13kts
06-Oct-18 19:32 32.731262 -117.175914 131 28ft 0kts
06-Oct-18 19:33 32.730706 -117.175420 160 28ft 12kts
06-Oct-18 19:34 32.730225 -117.175998 286 28ft 0kts
06-Oct-18 19:35 32.730332 -117.176415 287 28ft 21kts
06-Oct-18 19:36 32.741098 -117.218319 285 1033ft 182kts
06-Oct-18 19:37 32.754623 -117.281166 269 2653ft 229kts
06-Oct-18 19:38 32.699931 -117.321023 174 4673ft 281kts
06-Oct-18 19:39 32.641218 -117.258483 125 7735ft 302kts
06-Oct-18 19:40 32.622935 -117.159429 93 10576ft 318kts
06-Oct-18 19:41 32.614162 -117.051322 94 13262ft 340kts
06-Oct-18 19:42 32.603845 -116.932029 88 14765ft 403kts
06-Oct-18 19:43 32.626250 -116.792964 73 16739ft 448kts
06-Oct-18 19:44 32.643528 -116.641931 81 19312ft 476kts
06-Oct-18 19:45 32.658321 -116.482180 80 21851ft 497kts
06-Oct-18 19:46 32.674773 -116.315919 80 24195ft 516kts
06-Oct-18 19:47 32.690748 -116.144905 80 26464ft 530kts
06-Oct-18 19:48 32.707078 -115.968313 81 28350ft 544kts
06-Oct-18 19:49 32.723972 -115.787920 81 30110ft 549kts
06-Oct-18 19:50 32.740033 -115.608197 82 31945ft 545kts
06-Oct-18 19:51 32.753139 -115.429707 78 32635ft 543kts
06-Oct-18 19:52 32.821742 -115.273530 51 32662ft 532kts
06-Oct-18 19:53 32.904211 -115.126988 51 32664ft 534kts
06-Oct-18 19:54 32.980571 -114.978004 70 32652ft 525kts
06-Oct-18 19:55 32.954972 -114.817076 131 32663ft 510kts
06-Oct-18 19:56 32.856026 -114.700602 142 32660ft 494kts
06-Oct-18 19:57 32.776216 -114.570466 105 32665ft 510kts
06-Oct-18 19:58 32.770175 -114.400187 88 32661ft 516kts
06-Oct-18 19:59 32.773208 -114.230109 90 32664ft 516kts
06-Oct-18 20:00 32.774976 -114.059343 90 32669ft 516kts
06-Oct-18 20:01 32.786979 -113.889769 79 32676ft 515kts
06-Oct-18 20:02 32.811782 -113.721736 80 32684ft 516kts
06-Oct-18 20:03 32.835510 -113.553160 81 32694ft 517kts
06-Oct-18 20:04 32.858588 -113.386758 81 32704ft 517kts
06-Oct-18 20:05 32.882145 -113.218414 81 32680ft 510kts
06-Oct-18 20:06 32.905253 -113.051696 81 31156ft 504kts
06-Oct-18 20:07 32.923953 -112.916392 81 28947ft 492kts
06-Oct-18 20:08 32.948474 -112.732768 82 26754ft 469kts
06-Oct-18 20:09 32.931684 -112.610802 114 24915ft 441kts
06-Oct-18 20:10 32.881372 -112.478861 120 24639ft 438kts
06-Oct-18 20:11 32.821673 -112.326141 119 24655ft 436kts
06-Oct-18 20:12 32.779263 -112.215826 119 24034ft 437kts
06-Oct-18 20:13 32.720759 -112.065136 119 21132ft 421kts
06-Oct-18 20:14 32.680746 -111.962353 119 19173ft 408kts
06-Oct-18 20:15 32.633724 -111.841991 119 16848ft 392kts
06-Oct-18 20:16 32.588530 -111.727436 119 14642ft 375kts
06-Oct-18 20:17 32.543256 -111.619011 127 12479ft 353kts
06-Oct-18 20:18 32.484869 -111.527379 131 11998ft 349kts
06-Oct-18 20:19 32.426628 -111.434994 131 11994ft 349kts
06-Oct-18 20:20 32.367855 -111.343529 134 12005ft 348kts
06-Oct-18 20:21 32.309284 -111.262500 135 11175ft 304kts
06-Oct-18 20:22 32.254933 -111.188219 135 9347ft 293kts
06-Oct-18 20:23 32.201811 -111.117478 135 7560ft 283kts
06-Oct-18 20:24 32.150248 -111.049271 135 6099ft 277kts
06-Oct-18 20:25 32.095426 -110.990723 145 6008ft 242kts
06-Oct-18 20:26 32.045306 -110.943398 145 6018ft 229kts
06-Oct-18 20:27 31.995155 -110.895751 141 6048ft 234kts
06-Oct-18 20:28 31.987097 -110.827489 45 5088ft 235kts
06-Oct-18 20:29 32.036843 -110.839615 316 5054ft 183kts
06-Oct-18 20:30 32.067974 -110.880924 306 3704ft 167kts
06-Oct-18 20:31 32.099809 -110.920176 310 2730ft 165kts
06-Oct-18 20:32 32.117858 -110.941418 314 2656ft 29kts
06-Oct-18 20:33 32.120558 -110.943407 79 2656ft 4kts
06-Oct-18 20:34 32.117041 -110.938878 135 2656ft 25kts
06-Oct-18 20:35 32.115643 -110.937233 134 2656ft 0kts
06-Oct-18 20:36 32.114090 -110.935369 135 2656ft 24kts

Navigation Log

Ident Type
Flight plan parsing failed, navigation log unavailable